createdAt,value
2022-08-25T00:00:15.115Z,0.00
2022-08-25T00:01:15.099Z,0.00
2022-08-25T00:02:15.109Z,0.00
2022-08-25T00:03:15.072Z,0.00
2022-08-25T00:04:15.059Z,0.00
2022-08-25T00:05:15.086Z,0.00
2022-08-25T00:06:15.034Z,0.00
2022-08-25T00:07:18.625Z,0.00
2022-08-25T00:08:15.003Z,0.00
2022-08-25T00:09:14.992Z,0.00
2022-08-25T00:10:14.971Z,0.00
2022-08-25T00:11:14.965Z,0.00
2022-08-25T00:12:14.943Z,0.00
2022-08-25T00:13:14.935Z,0.00
2022-08-25T00:14:14.922Z,0.00
2022-08-25T00:15:14.910Z,0.00
2022-08-25T00:16:14.969Z,0.00
2022-08-25T00:17:14.875Z,0.00
2022-08-25T00:18:19.860Z,0.00
2022-08-25T00:19:14.853Z,0.00
2022-08-25T00:20:14.841Z,0.00
2022-08-25T00:21:14.834Z,0.00
2022-08-25T00:22:14.812Z,0.00
2022-08-25T00:23:14.806Z,0.00
2022-08-25T00:24:14.784Z,0.00
2022-08-25T00:25:14.774Z,0.00
2022-08-25T00:26:14.759Z,0.00
2022-08-25T00:27:14.741Z,0.00
2022-08-25T00:28:14.727Z,0.00
2022-08-25T00:29:14.725Z,0.00
2022-08-25T00:30:15.845Z,0.00
2022-08-25T00:31:14.771Z,0.00
2022-08-25T00:32:14.674Z,0.00
2022-08-25T00:33:14.670Z,0.00
2022-08-25T00:34:14.653Z,0.00
2022-08-25T00:35:14.637Z,0.00
2022-08-25T00:36:14.623Z,0.00
2022-08-25T00:37:14.606Z,0.00
2022-08-25T00:38:14.588Z,0.00
2022-08-25T00:39:14.581Z,0.00
2022-08-25T00:40:14.644Z,0.00
2022-08-25T00:41:14.558Z,0.00
2022-08-25T00:42:15.788Z,0.00
2022-08-25T00:43:14.529Z,0.00
2022-08-25T00:44:14.515Z,0.00
2022-08-25T00:45:14.498Z,0.00
2022-08-25T00:46:14.577Z,0.00
2022-08-25T00:47:14.470Z,0.00
2022-08-25T00:48:14.461Z,0.00
2022-08-25T00:49:16.410Z,0.00
2022-08-25T00:50:15.450Z,0.00
2022-08-25T00:51:14.412Z,0.00
2022-08-25T00:52:14.407Z,0.00
2022-08-25T00:53:14.394Z,0.00
2022-08-25T00:54:14.387Z,0.00
2022-08-25T00:55:14.368Z,0.00
2022-08-25T00:56:14.352Z,0.00
2022-08-25T00:57:14.333Z,0.00
2022-08-25T00:58:14.324Z,0.00
2022-08-25T00:59:14.310Z,0.00
2022-08-25T01:00:14.302Z,0.00
2022-08-25T01:01:14.304Z,0.00
2022-08-25T01:02:14.306Z,0.00
2022-08-25T01:03:14.262Z,0.00
2022-08-25T01:04:14.245Z,0.00
2022-08-25T01:05:14.223Z,0.00
2022-08-25T01:06:14.213Z,0.00
2022-08-25T01:07:17.441Z,0.00
2022-08-25T01:08:16.386Z,0.00
2022-08-25T01:09:14.180Z,0.00
2022-08-25T01:10:14.166Z,0.00
2022-08-25T01:11:14.148Z,0.00
2022-08-25T01:12:14.141Z,0.00
2022-08-25T01:13:16.486Z,0.00
2022-08-25T01:14:14.111Z,0.00
2022-08-25T01:15:14.098Z,0.00
2022-08-25T01:16:14.155Z,0.00
2022-08-25T01:17:14.077Z,0.00
2022-08-25T01:18:14.056Z,0.00
2022-08-25T01:19:15.216Z,0.00
2022-08-25T01:20:14.033Z,0.00
2022-08-25T01:21:14.013Z,0.00
2022-08-25T01:22:14.001Z,0.00
2022-08-25T01:23:13.982Z,0.00
2022-08-25T01:24:13.979Z,0.00
2022-08-25T01:25:13.964Z,0.00
2022-08-25T01:26:13.954Z,0.00
2022-08-25T01:27:13.944Z,0.00
2022-08-25T01:28:13.921Z,0.00
2022-08-25T01:29:13.906Z,0.00
2022-08-25T01:30:13.894Z,0.00
2022-08-25T01:31:24.158Z,0.00
2022-08-25T01:32:14.892Z,0.00
2022-08-25T01:33:13.854Z,0.00
2022-08-25T01:34:13.837Z,0.00
2022-08-25T01:35:13.822Z,0.00
2022-08-25T01:36:13.817Z,0.00
2022-08-25T01:37:13.804Z,0.00
2022-08-25T01:38:13.792Z,0.00
2022-08-25T01:39:13.773Z,0.00
2022-08-25T01:40:13.859Z,0.00
2022-08-25T01:41:13.741Z,0.00
2022-08-25T01:42:13.735Z,0.00
2022-08-25T01:43:13.713Z,0.00
2022-08-25T01:44:16.045Z,0.00
2022-08-25T01:45:13.692Z,0.00
2022-08-25T01:46:13.741Z,0.00
2022-08-25T01:47:13.666Z,0.00
2022-08-25T01:48:13.658Z,0.00
2022-08-25T01:49:13.636Z,0.00
2022-08-25T01:50:13.625Z,0.00
2022-08-25T01:51:13.612Z,0.00
2022-08-25T01:52:13.603Z,0.00
2022-08-25T01:53:13.589Z,0.00
2022-08-25T01:54:13.576Z,0.00
2022-08-25T01:55:13.560Z,0.00
2022-08-25T01:56:13.550Z,0.00
2022-08-25T01:57:13.531Z,0.00
2022-08-25T01:58:13.517Z,0.00
2022-08-25T01:59:13.504Z,0.00
2022-08-25T02:00:13.491Z,0.00
2022-08-25T02:01:13.563Z,0.00
2022-08-25T02:02:13.521Z,0.00
2022-08-25T02:03:19.078Z,0.00
2022-08-25T02:04:14.461Z,0.00
2022-08-25T02:05:13.423Z,0.00
2022-08-25T02:06:13.407Z,0.00
2022-08-25T02:07:13.396Z,0.00
2022-08-25T02:08:13.382Z,0.00
2022-08-25T02:09:13.374Z,0.00
2022-08-25T02:10:13.362Z,0.00
2022-08-25T02:11:13.344Z,0.00
2022-08-25T02:12:13.336Z,0.00
2022-08-25T02:13:15.659Z,0.00
2022-08-25T02:14:13.308Z,0.00
2022-08-25T02:15:13.292Z,0.00
2022-08-25T02:16:13.333Z,0.00
2022-08-25T02:17:13.264Z,0.00
2022-08-25T02:18:13.246Z,0.00
2022-08-25T02:19:13.236Z,0.00
2022-08-25T02:20:13.221Z,0.00
2022-08-25T02:21:13.213Z,0.00
2022-08-25T02:22:13.197Z,0.00
2022-08-25T02:23:13.185Z,0.00
2022-08-25T02:24:13.170Z,0.00
2022-08-25T02:25:13.158Z,0.00
2022-08-25T02:26:13.143Z,0.00
2022-08-25T02:27:13.128Z,0.00
2022-08-25T02:28:13.110Z,0.00
2022-08-25T02:29:13.103Z,0.00
2022-08-25T02:30:13.088Z,0.00
2022-08-25T02:31:13.143Z,0.00
2022-08-25T02:32:13.067Z,0.00
2022-08-25T02:33:13.055Z,0.00
2022-08-25T02:34:13.036Z,0.00
2022-08-25T02:35:13.028Z,0.00
2022-08-25T02:36:13.009Z,0.00
2022-08-25T02:37:13.000Z,0.00
2022-08-25T02:38:12.985Z,0.00
2022-08-25T02:39:12.973Z,0.00
2022-08-25T02:40:13.031Z,0.00
2022-08-25T02:41:12.941Z,0.00
2022-08-25T02:42:12.922Z,0.00
2022-08-25T02:43:12.918Z,0.00
2022-08-25T02:44:12.901Z,0.00
2022-08-25T02:45:12.887Z,0.00
2022-08-25T02:46:12.919Z,0.00
2022-08-25T02:47:12.861Z,0.00
2022-08-25T02:48:12.851Z,0.00
2022-08-25T02:49:12.841Z,0.00
2022-08-25T02:50:12.820Z,0.00
2022-08-25T02:51:12.816Z,0.00
2022-08-25T02:52:12.792Z,0.00
2022-08-25T02:53:12.778Z,0.00
2022-08-25T02:54:12.762Z,0.00
2022-08-25T02:55:12.752Z,0.00
2022-08-25T02:56:12.737Z,0.00
2022-08-25T02:57:12.733Z,0.00
2022-08-25T02:58:12.708Z,0.00
2022-08-25T02:59:12.700Z,0.00
2022-08-25T03:00:13.213Z,0.00
2022-08-25T03:01:12.704Z,0.00
2022-08-25T03:02:12.661Z,0.00
2022-08-25T03:03:12.653Z,0.00
2022-08-25T03:04:12.632Z,0.00
2022-08-25T03:05:12.660Z,0.00
2022-08-25T03:06:12.614Z,0.00
2022-08-25T03:07:12.604Z,0.00
2022-08-25T03:08:12.579Z,0.00
2022-08-25T03:09:12.573Z,0.00
2022-08-25T03:10:12.556Z,0.00
2022-08-25T03:11:12.542Z,0.00
2022-08-25T03:12:12.524Z,0.00
2022-08-25T03:13:12.516Z,0.00
2022-08-25T03:14:12.496Z,0.00
2022-08-25T03:15:12.854Z,0.00
2022-08-25T03:16:12.574Z,0.00
2022-08-25T03:17:12.458Z,0.00
2022-08-25T03:18:12.438Z,0.00
2022-08-25T03:19:12.432Z,0.00
2022-08-25T03:20:12.412Z,0.00
2022-08-25T03:21:12.401Z,0.00
2022-08-25T03:22:12.385Z,0.00
2022-08-25T03:23:12.377Z,0.00
2022-08-25T03:24:12.367Z,0.00
2022-08-25T03:25:12.354Z,0.00
2022-08-25T03:26:12.334Z,0.00
2022-08-25T03:27:12.332Z,0.00
2022-08-25T03:28:12.307Z,0.00
2022-08-25T03:29:12.293Z,0.00
2022-08-25T03:30:12.276Z,0.00
2022-08-25T03:31:12.264Z,0.00
2022-08-25T03:32:12.346Z,0.00
2022-08-25T03:33:12.239Z,0.00
2022-08-25T03:34:12.221Z,0.00
2022-08-25T03:35:12.214Z,0.00
2022-08-25T03:36:12.206Z,0.00
2022-08-25T03:37:12.191Z,0.00
2022-08-25T03:38:12.175Z,0.00
2022-08-25T03:39:12.160Z,0.00
2022-08-25T03:40:15.373Z,0.00
2022-08-25T03:41:12.139Z,0.00
2022-08-25T03:42:12.121Z,0.00
2022-08-25T03:43:12.108Z,0.00
2022-08-25T03:44:12.086Z,0.00
2022-08-25T03:45:12.076Z,0.00
2022-08-25T03:46:12.093Z,0.00
2022-08-25T03:47:12.050Z,0.00
2022-08-25T03:48:12.037Z,0.00
2022-08-25T03:49:12.019Z,0.00
2022-08-25T03:50:12.014Z,0.00
2022-08-25T03:51:11.996Z,0.00
2022-08-25T03:52:11.982Z,0.00
2022-08-25T03:53:11.972Z,0.00
2022-08-25T03:54:11.955Z,0.00
2022-08-25T03:55:11.947Z,0.00
2022-08-25T03:56:11.928Z,0.00
2022-08-25T03:57:11.917Z,0.00
2022-08-25T03:58:11.901Z,0.00
2022-08-25T03:59:11.886Z,0.00
2022-08-25T04:00:11.875Z,0.00
2022-08-25T04:01:12.118Z,0.00
2022-08-25T04:02:11.868Z,4.00
2022-08-25T04:03:11.840Z,4.00
2022-08-25T04:04:11.826Z,0.00
2022-08-25T04:05:11.812Z,4.00
2022-08-25T04:06:11.797Z,4.00
2022-08-25T04:07:11.780Z,4.00
2022-08-25T04:08:11.766Z,4.00
2022-08-25T04:09:11.757Z,4.00
2022-08-25T04:10:11.744Z,8.00
2022-08-25T04:11:11.725Z,8.00
2022-08-25T04:12:11.712Z,8.00
2022-08-25T04:13:11.697Z,8.00
2022-08-25T04:14:12.986Z,12.00
2022-08-25T04:15:11.672Z,16.00
2022-08-25T04:16:11.738Z,16.00
2022-08-25T04:17:11.654Z,20.00
2022-08-25T04:18:11.625Z,24.00
2022-08-25T04:19:11.619Z,28.00
2022-08-25T04:20:14.102Z,32.00
2022-08-25T04:21:11.598Z,40.00
2022-08-25T04:22:11.575Z,44.00
2022-08-25T04:23:11.561Z,48.00
2022-08-25T04:24:11.551Z,56.00
2022-08-25T04:25:11.539Z,60.00
2022-08-25T04:26:11.522Z,68.00
2022-08-25T04:27:11.513Z,76.00
2022-08-25T04:28:11.507Z,84.00
2022-08-25T04:29:11.484Z,92.00
2022-08-25T04:30:11.478Z,108.00
2022-08-25T04:31:11.457Z,120.00
2022-08-25T04:32:11.540Z,128.00
2022-08-25T04:33:11.431Z,140.00
2022-08-25T04:34:14.300Z,152.00
2022-08-25T04:35:12.427Z,168.00
2022-08-25T04:36:12.440Z,184.00
2022-08-25T04:37:11.379Z,200.00
2022-08-25T04:38:11.359Z,216.00
2022-08-25T04:39:11.348Z,236.00
2022-08-25T04:40:11.389Z,252.00
2022-08-25T04:41:11.323Z,268.00
2022-08-25T04:42:11.306Z,288.00
2022-08-25T04:43:11.291Z,308.00
2022-08-25T04:44:11.274Z,328.00
2022-08-25T04:45:11.269Z,344.00
2022-08-25T04:46:11.372Z,364.00
2022-08-25T04:47:11.234Z,380.00
2022-08-25T04:48:11.222Z,404.00
2022-08-25T04:49:11.217Z,424.00
2022-08-25T04:50:11.199Z,448.00
2022-08-25T04:51:11.190Z,472.00
2022-08-25T04:52:13.043Z,492.00
2022-08-25T04:53:11.158Z,512.00
2022-08-25T04:54:11.146Z,528.00
2022-08-25T04:55:11.131Z,552.00
2022-08-25T04:56:11.112Z,576.00
2022-08-25T04:57:11.099Z,604.00
2022-08-25T04:58:14.554Z,624.00
2022-08-25T04:59:11.073Z,652.00
2022-08-25T05:00:11.067Z,672.00
2022-08-25T05:01:11.148Z,696.00
2022-08-25T05:02:11.037Z,716.00
2022-08-25T05:03:11.021Z,736.00
2022-08-25T05:04:14.630Z,756.00
2022-08-25T05:05:12.014Z,776.00
2022-08-25T05:06:15.713Z,796.00
2022-08-25T05:07:10.961Z,820.00
2022-08-25T05:08:10.950Z,836.00
2022-08-25T05:09:10.936Z,860.00
2022-08-25T05:10:10.928Z,880.00
2022-08-25T05:11:10.907Z,900.00
2022-08-25T05:12:10.902Z,924.00
2022-08-25T05:13:10.885Z,944.00
2022-08-25T05:14:10.882Z,968.00
2022-08-25T05:15:10.859Z,992.00
2022-08-25T05:16:11.476Z,1016.00
2022-08-25T05:17:10.832Z,1036.00
2022-08-25T05:18:10.821Z,1048.00
2022-08-25T05:19:10.804Z,1064.00
2022-08-25T05:20:10.791Z,1072.00
2022-08-25T05:21:10.771Z,1092.00
2022-08-25T05:22:10.761Z,1108.00
2022-08-25T05:23:10.745Z,1136.00
2022-08-25T05:24:10.732Z,1156.00
2022-08-25T05:25:10.721Z,1176.00
2022-08-25T05:26:10.707Z,1188.00
2022-08-25T05:27:10.694Z,1196.00
2022-08-25T05:28:10.685Z,1212.00
2022-08-25T05:29:10.673Z,1220.00
2022-08-25T05:30:10.658Z,1236.00
2022-08-25T05:31:10.703Z,1256.00
2022-08-25T05:32:10.654Z,1300.00
2022-08-25T05:33:10.610Z,1360.00
2022-08-25T05:34:10.599Z,1408.00
2022-08-25T05:35:10.582Z,1360.00
2022-08-25T05:36:10.575Z,1460.00
2022-08-25T05:37:12.290Z,1584.00
2022-08-25T05:38:15.617Z,1616.00
2022-08-25T05:39:10.535Z,1700.00
2022-08-25T05:40:10.582Z,1912.00
2022-08-25T05:41:10.506Z,2536.00
2022-08-25T05:42:10.507Z,3784.00
2022-08-25T05:43:10.478Z,4632.00
2022-08-25T05:44:10.461Z,4780.00
2022-08-25T05:45:10.447Z,4448.00
2022-08-25T05:46:11.588Z,3952.00
2022-08-25T05:47:10.419Z,3444.00
2022-08-25T05:48:10.409Z,3352.00
2022-08-25T05:49:10.394Z,3336.00
2022-08-25T05:50:10.382Z,3152.00
2022-08-25T05:51:10.367Z,3452.00
2022-08-25T05:52:10.361Z,3712.00
2022-08-25T05:53:10.347Z,4472.00
2022-08-25T05:54:10.337Z,5508.00
2022-08-25T05:55:10.322Z,6096.00
2022-08-25T05:56:10.306Z,6244.00
2022-08-25T05:57:10.312Z,6372.00
2022-08-25T05:58:10.280Z,6628.00
2022-08-25T05:59:10.264Z,6888.00
2022-08-25T06:00:10.246Z,6980.00
2022-08-25T06:01:10.543Z,7092.00
2022-08-25T06:02:10.238Z,7148.00
2022-08-25T06:03:10.204Z,7252.00
2022-08-25T06:04:10.198Z,7528.00
2022-08-25T06:05:10.188Z,7964.00
2022-08-25T06:06:10.171Z,8184.00
2022-08-25T06:07:10.157Z,8264.00
2022-08-25T06:08:10.140Z,8348.00
2022-08-25T06:09:10.123Z,8444.00
2022-08-25T06:10:10.116Z,8672.00
2022-08-25T06:11:10.100Z,8880.00
2022-08-25T06:12:10.086Z,8908.00
2022-08-25T06:13:10.070Z,9060.00
2022-08-25T06:14:10.060Z,9192.00
2022-08-25T06:15:10.044Z,9220.00
2022-08-25T06:16:10.136Z,9312.00
2022-08-25T06:17:10.020Z,9180.00
2022-08-25T06:18:10.008Z,9096.00
2022-08-25T06:19:10.034Z,9256.00
2022-08-25T06:20:09.989Z,9308.00
2022-08-25T06:21:09.970Z,8408.00
2022-08-25T06:22:09.958Z,6520.00
2022-08-25T06:23:09.940Z,5176.00
2022-08-25T06:24:14.717Z,4808.00
2022-08-25T06:25:09.915Z,4612.00
2022-08-25T06:26:09.901Z,4500.00
2022-08-25T06:27:09.884Z,4408.00
2022-08-25T06:28:09.874Z,4372.00
2022-08-25T06:29:09.856Z,4332.00
2022-08-25T06:30:09.846Z,4324.00
2022-08-25T06:31:09.874Z,4464.00
2022-08-25T06:32:09.826Z,4460.00
2022-08-25T06:33:09.807Z,4456.00
2022-08-25T06:34:09.801Z,4460.00
2022-08-25T06:35:09.779Z,4480.00
2022-08-25T06:36:09.767Z,4528.00
2022-08-25T06:37:09.756Z,4544.00
2022-08-25T06:38:09.744Z,4576.00
2022-08-25T06:39:10.478Z,4632.00
2022-08-25T06:40:09.824Z,4708.00
2022-08-25T06:41:09.703Z,4820.00
2022-08-25T06:42:09.699Z,4964.00
2022-08-25T06:43:09.676Z,5156.00
2022-08-25T06:44:09.673Z,5428.00
2022-08-25T06:45:09.653Z,5832.00
2022-08-25T06:46:09.646Z,7032.00
2022-08-25T06:47:09.717Z,9156.00
2022-08-25T06:48:09.611Z,11528.00
2022-08-25T06:49:09.594Z,13792.00
2022-08-25T06:50:09.591Z,14912.00
2022-08-25T06:51:09.567Z,15520.00
2022-08-25T06:52:09.554Z,15808.00
2022-08-25T06:53:09.540Z,16192.00
2022-08-25T06:54:09.530Z,16864.00
2022-08-25T06:55:09.512Z,16992.00
2022-08-25T06:56:09.505Z,17248.00
2022-08-25T06:57:09.496Z,17664.00
2022-08-25T06:58:11.146Z,17952.00
2022-08-25T06:59:09.467Z,18048.00
2022-08-25T07:00:09.456Z,18240.00
2022-08-25T07:01:13.468Z,18144.00
2022-08-25T07:02:10.524Z,18208.00
2022-08-25T07:03:09.474Z,18144.00
2022-08-25T07:04:12.795Z,18016.00
2022-08-25T07:05:13.181Z,17696.00
2022-08-25T07:06:09.375Z,17664.00
2022-08-25T07:07:09.354Z,17728.00
2022-08-25T07:08:09.351Z,17600.00
2022-08-25T07:09:09.335Z,17920.00
2022-08-25T07:10:09.332Z,17824.00
2022-08-25T07:11:15.918Z,18784.00
2022-08-25T07:12:10.322Z,19904.00
2022-08-25T07:13:09.285Z,21088.00
2022-08-25T07:14:09.276Z,21376.00
2022-08-25T07:15:19.727Z,21760.00
2022-08-25T07:16:10.320Z,21600.00
2022-08-25T07:17:11.943Z,21344.00
2022-08-25T07:18:09.260Z,20608.00
2022-08-25T07:19:09.205Z,20704.00
2022-08-25T07:20:09.198Z,21376.00
2022-08-25T07:21:09.333Z,21312.00
2022-08-25T07:22:09.360Z,21952.00
2022-08-25T07:23:09.197Z,22336.00
2022-08-25T07:24:09.144Z,23136.00
2022-08-25T07:25:09.127Z,23232.00
2022-08-25T07:26:15.829Z,23424.00
2022-08-25T07:27:10.139Z,24448.00
2022-08-25T07:28:09.347Z,24448.00
2022-08-25T07:29:09.115Z,24960.00
2022-08-25T07:30:09.074Z,24512.00
2022-08-25T07:31:10.002Z,24864.00
2022-08-25T07:32:09.042Z,24640.00
2022-08-25T07:33:09.347Z,24672.00
2022-08-25T07:34:09.022Z,23968.00
2022-08-25T07:35:09.005Z,24768.00
2022-08-25T07:36:09.001Z,24032.00
2022-08-25T07:37:08.983Z,24928.00
2022-08-25T07:38:09.172Z,23136.00
2022-08-25T07:39:08.956Z,24608.00
2022-08-25T07:40:08.981Z,24000.00
2022-08-25T07:41:08.928Z,24416.00
2022-08-25T07:42:11.958Z,24768.00
2022-08-25T07:43:08.903Z,24000.00
2022-08-25T07:44:08.902Z,24896.00
2022-08-25T07:45:08.883Z,22976.00
2022-08-25T07:46:08.944Z,18848.00
2022-08-25T07:47:08.857Z,13408.00
2022-08-25T07:48:08.851Z,10248.00
2022-08-25T07:49:16.357Z,9404.00
2022-08-25T07:50:09.845Z,8880.00
2022-08-25T07:51:08.813Z,8504.00
2022-08-25T07:52:09.009Z,8232.00
2022-08-25T07:53:09.073Z,8032.00
2022-08-25T07:54:08.772Z,7896.00
2022-08-25T07:55:11.034Z,7772.00
2022-08-25T07:56:08.748Z,7692.00
2022-08-25T07:57:08.732Z,7616.00
2022-08-25T07:58:08.935Z,7532.00
2022-08-25T07:59:08.706Z,7528.00
2022-08-25T08:00:08.703Z,7508.00
2022-08-25T08:01:08.688Z,7492.00
2022-08-25T08:02:08.803Z,7468.00
2022-08-25T08:03:12.953Z,7404.00
2022-08-25T08:04:09.702Z,7364.00
2022-08-25T08:05:09.690Z,7312.00
2022-08-25T08:06:08.631Z,7292.00
2022-08-25T08:07:12.078Z,7276.00
2022-08-25T08:08:08.602Z,7272.00
2022-08-25T08:09:08.586Z,7272.00
2022-08-25T08:10:41.975Z,7292.00
2022-08-25T08:11:09.683Z,7304.00
2022-08-25T08:12:08.555Z,7300.00
2022-08-25T08:13:08.928Z,7336.00
2022-08-25T08:14:08.532Z,7380.00
2022-08-25T08:15:10.173Z,7436.00
2022-08-25T08:16:08.565Z,7496.00
2022-08-25T08:17:08.590Z,7640.00
2022-08-25T08:18:08.482Z,7812.00
2022-08-25T08:19:08.465Z,8036.00
2022-08-25T08:20:08.457Z,8404.00
2022-08-25T08:21:08.442Z,9080.00
2022-08-25T08:22:08.433Z,10600.00
2022-08-25T08:23:08.619Z,20128.00
2022-08-25T08:24:24.788Z,35136.00
2022-08-25T08:25:10.598Z,37376.00
2022-08-25T08:26:08.381Z,40096.00
2022-08-25T08:27:08.370Z,39648.00
2022-08-25T08:28:08.513Z,39104.00
2022-08-25T08:29:08.348Z,40480.00
2022-08-25T08:30:08.357Z,41440.00
2022-08-25T08:31:10.799Z,42176.00
2022-08-25T08:32:08.317Z,42656.00
2022-08-25T08:33:11.780Z,44000.00
2022-08-25T08:34:08.297Z,43360.00
2022-08-25T08:35:08.276Z,41984.00
2022-08-25T08:36:08.264Z,42400.00
2022-08-25T08:37:08.253Z,41760.00
2022-08-25T08:38:14.788Z,42688.00
2022-08-25T08:39:09.251Z,41280.00
2022-08-25T08:40:08.285Z,42240.00
2022-08-25T08:41:08.206Z,44736.00
2022-08-25T08:42:11.681Z,43328.00
2022-08-25T08:43:13.311Z,43520.00
2022-08-25T08:44:09.200Z,46304.00
2022-08-25T08:45:09.729Z,45792.00
2022-08-25T08:46:08.237Z,44416.00
2022-08-25T08:47:09.628Z,44448.00
2022-08-25T08:48:08.122Z,43968.00
2022-08-25T08:49:08.108Z,42912.00
2022-08-25T08:50:08.097Z,44640.00
2022-08-25T08:51:10.037Z,45760.00
2022-08-25T08:52:08.079Z,45152.00
2022-08-25T08:53:08.178Z,47840.00
2022-08-25T08:54:15.362Z,46784.00
2022-08-25T08:55:09.063Z,48192.00
2022-08-25T08:56:08.034Z,48416.00
2022-08-25T08:57:08.027Z,46624.00
2022-08-25T08:58:08.014Z,49376.00
2022-08-25T08:59:07.999Z,49504.00
2022-08-25T09:00:07.996Z,48448.00
2022-08-25T09:01:07.976Z,47808.00
2022-08-25T09:02:13.696Z,51872.00
2022-08-25T09:03:07.991Z,50272.00
2022-08-25T09:04:07.944Z,49920.00
2022-08-25T09:05:07.929Z,53408.00
2022-08-25T09:06:07.923Z,49856.00
2022-08-25T09:07:07.900Z,47360.00
2022-08-25T09:08:08.534Z,50496.00
2022-08-25T09:09:07.877Z,50944.00
2022-08-25T09:10:07.869Z,47584.00
2022-08-25T09:11:10.261Z,48640.00
2022-08-25T09:12:07.848Z,50432.00
2022-08-25T09:13:12.234Z,50656.00
2022-08-25T09:14:07.839Z,47840.00
2022-08-25T09:15:12.622Z,47776.00
2022-08-25T09:16:07.949Z,51136.00
2022-08-25T09:17:07.792Z,50496.00
2022-08-25T09:18:08.500Z,49856.00
2022-08-25T09:19:07.768Z,47776.00
2022-08-25T09:20:18.704Z,48640.00
2022-08-25T09:21:08.762Z,53760.00
2022-08-25T09:22:35.745Z,52160.00
2022-08-25T09:23:08.742Z,50208.00
2022-08-25T09:24:11.618Z,54144.00
2022-08-25T09:25:08.772Z,55520.00
2022-08-25T09:26:07.687Z,52352.00
2022-08-25T09:27:07.675Z,51392.00
2022-08-25T09:28:07.667Z,52896.00
2022-08-25T09:29:07.659Z,50848.00
2022-08-25T09:30:10.037Z,50528.00
2022-08-25T09:31:07.700Z,52896.00
2022-08-25T09:32:07.627Z,49504.00
2022-08-25T09:33:07.614Z,48832.00
2022-08-25T09:34:07.597Z,51072.00
2022-08-25T09:35:07.589Z,51296.00
2022-08-25T09:36:08.888Z,49184.00
2022-08-25T09:37:07.565Z,49600.00
2022-08-25T09:38:07.726Z,50016.00
2022-08-25T09:39:07.543Z,47456.00
2022-08-25T09:40:07.628Z,49824.00
2022-08-25T09:41:07.523Z,53280.00
2022-08-25T09:42:07.504Z,52512.00
2022-08-25T09:43:07.499Z,51840.00
2022-08-25T09:44:07.487Z,54592.00
2022-08-25T09:45:07.478Z,53088.00
2022-08-25T09:46:07.482Z,50400.00
2022-08-25T09:47:08.265Z,53824.00
2022-08-25T09:48:07.687Z,56064.00
2022-08-25T09:49:07.436Z,52896.00
2022-08-25T09:50:07.424Z,53312.00
2022-08-25T09:51:07.414Z,54112.00
2022-08-25T09:52:07.399Z,53664.00
2022-08-25T09:53:12.168Z,52480.00
2022-08-25T09:54:10.694Z,54272.00
2022-08-25T09:55:07.370Z,57184.00
2022-08-25T09:56:07.359Z,56736.00
2022-08-25T09:57:08.600Z,54464.00
2022-08-25T09:58:09.505Z,54944.00
2022-08-25T09:59:07.326Z,55424.00
2022-08-25T10:00:08.343Z,56032.00
2022-08-25T10:01:07.437Z,55200.00
2022-08-25T10:02:07.296Z,53248.00
2022-08-25T10:03:08.010Z,52896.00
2022-08-25T10:04:19.036Z,53632.00
2022-08-25T10:05:08.319Z,54688.00
2022-08-25T10:06:07.250Z,55968.00
2022-08-25T10:07:08.720Z,58432.00
2022-08-25T10:08:07.222Z,57536.00
2022-08-25T10:09:07.213Z,57664.00
2022-08-25T10:10:07.200Z,57888.00
2022-08-25T10:11:08.881Z,55392.00
2022-08-25T10:12:07.180Z,56160.00
2022-08-25T10:13:07.324Z,58176.00
2022-08-25T10:14:07.160Z,55968.00
2022-08-25T10:15:07.159Z,55712.00
2022-08-25T10:16:19.960Z,55936.00
2022-08-25T10:17:08.157Z,53760.00
2022-08-25T10:18:07.116Z,56480.00
2022-08-25T10:19:07.215Z,54944.00
2022-08-25T10:20:07.093Z,52032.00
2022-08-25T10:21:07.751Z,54496.00
2022-08-25T10:22:07.073Z,55456.00
2022-08-25T10:23:07.261Z,50528.00
2022-08-25T10:24:07.064Z,50528.00
2022-08-25T10:25:07.050Z,45984.00
2022-08-25T10:26:07.034Z,24992.00
2022-08-25T10:27:07.031Z,15168.00
2022-08-25T10:28:07.257Z,13080.00
2022-08-25T10:29:07.006Z,12804.00
2022-08-25T10:30:06.992Z,12328.00
2022-08-25T10:31:09.660Z,11372.00
2022-08-25T10:32:11.506Z,11588.00
2022-08-25T10:33:07.148Z,11632.00
2022-08-25T10:34:06.945Z,11776.00
2022-08-25T10:35:06.938Z,11892.00
2022-08-25T10:36:06.926Z,12172.00
2022-08-25T10:37:09.247Z,12856.00
2022-08-25T10:38:06.905Z,14400.00
2022-08-25T10:39:34.668Z,25120.00
2022-08-25T10:40:07.961Z,44064.00
2022-08-25T10:41:06.879Z,50880.00
2022-08-25T10:42:06.882Z,52160.00
2022-08-25T10:43:07.113Z,53728.00
2022-08-25T10:44:06.855Z,56288.00
2022-08-25T10:45:06.842Z,58496.00
2022-08-25T10:46:06.895Z,58848.00
2022-08-25T10:47:06.821Z,58592.00
2022-08-25T10:48:06.800Z,58560.00
2022-08-25T10:49:06.802Z,58400.00
2022-08-25T10:50:06.782Z,57600.00
2022-08-25T10:51:06.776Z,53248.00
2022-08-25T10:52:06.766Z,48992.00
2022-08-25T10:53:06.926Z,48864.00
2022-08-25T10:54:06.742Z,48384.00
2022-08-25T10:55:06.736Z,42272.00
2022-08-25T10:56:07.265Z,43712.00
2022-08-25T10:57:08.154Z,47392.00
2022-08-25T10:58:06.702Z,51232.00
2022-08-25T10:59:06.693Z,54752.00
2022-08-25T11:00:06.691Z,50816.00
2022-08-25T11:01:06.725Z,18976.00
2022-08-25T11:02:06.746Z,26560.00
2022-08-25T11:03:06.903Z,45536.00
2022-08-25T11:04:06.690Z,51968.00
2022-08-25T11:05:06.814Z,53984.00
2022-08-25T11:06:06.626Z,53856.00
2022-08-25T11:07:06.603Z,51104.00
2022-08-25T11:08:06.595Z,51648.00
2022-08-25T11:09:06.583Z,50272.00
2022-08-25T11:10:06.567Z,53472.00
2022-08-25T11:11:06.568Z,57152.00
2022-08-25T11:12:06.551Z,54208.00
2022-08-25T11:13:06.755Z,54592.00
2022-08-25T11:14:06.524Z,56928.00
2022-08-25T11:15:06.516Z,58432.00
2022-08-25T11:16:17.227Z,56160.00
2022-08-25T11:17:07.653Z,54208.00
2022-08-25T11:18:06.483Z,53440.00
2022-08-25T11:19:07.504Z,54176.00
2022-08-25T11:20:06.461Z,54464.00
2022-08-25T11:21:06.457Z,57024.00
2022-08-25T11:22:06.439Z,53920.00
2022-08-25T11:23:06.750Z,51872.00
2022-08-25T11:24:06.411Z,54592.00
2022-08-25T11:25:06.408Z,56544.00
2022-08-25T11:26:06.393Z,58816.00
2022-08-25T11:27:06.383Z,62016.00
2022-08-25T11:28:06.555Z,60672.00
2022-08-25T11:29:11.364Z,57920.00
2022-08-25T11:30:07.007Z,59584.00
2022-08-25T11:31:06.416Z,62688.00
2022-08-25T11:32:06.331Z,60608.00
2022-08-25T11:33:06.326Z,59584.00
2022-08-25T11:34:06.310Z,60768.00
2022-08-25T11:35:06.304Z,58432.00
2022-08-25T11:36:06.961Z,62464.00
2022-08-25T11:37:06.279Z,64576.00
2022-08-25T11:38:06.493Z,62592.00
2022-08-25T11:39:06.256Z,61632.00
2022-08-25T11:40:06.269Z,61664.00
2022-08-25T11:41:11.054Z,67104.00
2022-08-25T11:42:06.226Z,57568.00
2022-08-25T11:43:08.282Z,60352.00
2022-08-25T11:44:06.211Z,13000.00
2022-08-25T11:45:06.209Z,58336.00
2022-08-25T11:46:06.221Z,61984.00
2022-08-25T11:47:06.238Z,33216.00
2022-08-25T11:48:06.721Z,10888.00
2022-08-25T11:49:06.176Z,8376.00
2022-08-25T11:50:06.146Z,17440.00
2022-08-25T11:51:06.135Z,62720.00
2022-08-25T11:52:06.117Z,64736.00
2022-08-25T11:53:06.116Z,7224.00
2022-08-25T11:54:06.095Z,6732.00
2022-08-25T11:55:06.089Z,5532.00
2022-08-25T11:56:06.096Z,5532.00
2022-08-25T11:57:06.072Z,6692.00
2022-08-25T11:58:06.302Z,27360.00
2022-08-25T11:59:06.052Z,65280.00
2022-08-25T12:00:06.033Z,64192.00
2022-08-25T12:01:06.025Z,65024.00
2022-08-25T12:02:06.010Z,66304.00
2022-08-25T12:03:05.999Z,66176.00
2022-08-25T12:04:06.037Z,67136.00
2022-08-25T12:05:06.092Z,62112.00
2022-08-25T12:06:05.963Z,60064.00
2022-08-25T12:07:05.959Z,58976.00
2022-08-25T12:08:06.291Z,64480.00
2022-08-25T12:09:05.943Z,66336.00
2022-08-25T12:10:05.923Z,58912.00
2022-08-25T12:11:10.584Z,62176.00
2022-08-25T12:12:05.902Z,65984.00
2022-08-25T12:13:10.292Z,36928.00
2022-08-25T12:14:05.880Z,62368.00
2022-08-25T12:15:05.873Z,56384.00
2022-08-25T12:16:05.853Z,21408.00
2022-08-25T12:17:05.844Z,59328.00
2022-08-25T12:18:08.575Z,24928.00
2022-08-25T12:19:05.823Z,9036.00
2022-08-25T12:20:05.814Z,5012.00
2022-08-25T12:21:05.796Z,5048.00
2022-08-25T12:22:05.791Z,5500.00